createdAt,value
2017-02-03T09:56:26.601Z,10.03
2017-02-03T09:57:41.061Z,10.05
2017-02-03T09:58:55.187Z,10.12
2017-02-03T10:00:11.691Z,10.24
2017-02-03T10:01:27.831Z,10.23
2017-02-03T10:02:42.552Z,10.28
2017-02-03T10:03:56.682Z,10.43
2017-02-03T10:05:11.207Z,10.46
2017-02-03T10:06:26.704Z,10.58
2017-02-03T10:07:41.814Z,10.59
2017-02-03T10:08:57.170Z,10.64
2017-02-03T10:10:11.707Z,10.69
2017-02-03T10:11:26.694Z,10.69
2017-02-03T10:12:41.718Z,10.65
2017-02-03T10:13:55.706Z,10.76
2017-02-03T10:15:10.142Z,10.64
2017-02-03T10:16:24.619Z,10.58
2017-02-03T10:17:39.259Z,10.62
2017-02-03T10:18:53.441Z,10.59
2017-02-03T10:20:07.701Z,10.51
2017-02-03T10:21:23.690Z,10.64
2017-02-03T10:22:38.809Z,10.83
2017-02-03T10:23:55.677Z,10.71
2017-02-03T10:25:10.514Z,10.82
2017-02-03T10:26:24.708Z,11
2017-02-03T10:27:39.409Z,11.04
2017-02-03T10:28:54.020Z,10.97
2017-02-03T10:30:08.002Z,11.02
2017-02-03T10:31:22.609Z,10.98
2017-02-03T10:32:36.876Z,10.95
2017-02-03T10:33:51.468Z,10.94
2017-02-03T10:35:05.469Z,10.98
2017-02-03T10:36:20.347Z,10.82
2017-02-03T10:37:34.329Z,10.75
2017-02-03T10:38:48.503Z,10.77
2017-02-03T10:40:03.288Z,10.83
2017-02-03T10:41:17.439Z,10.79
2017-02-03T10:42:31.985Z,10.75
2017-02-03T10:43:46.126Z,10.69
2017-02-03T10:45:00.598Z,10.71
2017-02-03T10:46:16.561Z,10.69
2017-02-03T10:47:31.218Z,10.75
2017-02-03T10:48:45.215Z,10.83
2017-02-03T10:50:00.209Z,10.92
2017-02-03T10:51:14.896Z,10.87
2017-02-03T10:52:31.345Z,10.89
2017-02-03T10:53:46.374Z,10.87
2017-02-03T10:55:00.358Z,10.89
2017-02-03T10:56:14.534Z,10.94
2017-02-03T10:57:28.543Z,10.94
2017-02-03T10:58:43.887Z,11.01
2017-02-03T10:59:58.928Z,11.05
2017-02-03T11:01:13.651Z,11.01
2017-02-03T11:02:28.892Z,11.02
2017-02-03T11:03:44.053Z,11.05
2017-02-03T11:04:59.267Z,11.08
2017-02-03T11:06:25.240Z,11.22
2017-02-03T11:07:39.396Z,11.31
2017-02-03T11:08:53.580Z,11.26
2017-02-03T11:10:08.187Z,11.12
2017-02-03T11:11:23.101Z,11.18
2017-02-03T11:12:38.255Z,11.15
2017-02-03T11:13:52.813Z,11.05
2017-02-03T11:15:07.887Z,11.2
2017-02-03T11:16:21.880Z,11.26
2017-02-03T11:17:36.525Z,11.26
2017-02-03T11:18:50.871Z,11.2
2017-02-03T11:20:05.569Z,11.26
2017-02-03T11:21:20.082Z,11.19
2017-02-03T11:22:34.412Z,11.26
2017-02-03T11:23:49.336Z,11.49
2017-02-03T11:25:04.215Z,11.55
2017-02-03T11:26:18.233Z,11.55
2017-02-03T11:27:32.866Z,11.65
2017-02-03T11:28:48.632Z,11.56
2017-02-03T11:30:04.034Z,11.56
2017-02-03T11:31:19.951Z,11.59
2017-02-03T11:32:34.069Z,11.65
2017-02-03T11:33:49.582Z,11.71
2017-02-03T11:35:03.690Z,11.8
2017-02-03T11:36:18.109Z,11.88
2017-02-03T11:37:32.572Z,12.05
2017-02-03T11:38:47.235Z,12.11
2017-02-03T11:40:01.427Z,12.23
2017-02-03T11:41:19.181Z,12.21
2017-02-03T11:42:35.408Z,12.29
2017-02-03T11:43:50.171Z,12.32
2017-02-03T11:45:05.155Z,12.28
2017-02-03T11:46:20.306Z,12.23
2017-02-03T11:47:34.833Z,12.02
2017-02-03T11:48:48.978Z,12.03
2017-02-03T11:50:04.348Z,12.12
2017-02-03T11:51:20.182Z,12.12
2017-02-03T11:52:34.795Z,12.07
2017-02-03T11:53:48.833Z,12.03
2017-02-03T11:55:03.027Z,11.99
2017-02-03T11:56:17.329Z,12.05
2017-02-03T11:57:31.446Z,11.74
2017-02-03T11:58:46.078Z,11.71
2017-02-03T12:00:00.635Z,11.86
2017-02-03T12:02:18.749Z,11.74
2017-02-03T12:03:33.802Z,11.78
2017-02-03T12:04:47.803Z,11.81
2017-02-03T12:06:02.392Z,11.81
2017-02-03T12:07:17.220Z,11.71
2017-02-03T12:08:32.712Z,11.85
2017-02-03T12:09:46.807Z,11.89
2017-02-03T12:11:01.176Z,12.03
2017-02-03T12:12:15.172Z,11.96
2017-02-03T12:13:29.838Z,11.91
2017-02-03T12:14:45.395Z,11.97
2017-02-03T12:16:00.585Z,12.12
2017-02-03T12:17:16.057Z,12.14
2017-02-03T12:18:31.009Z,12.14
2017-02-03T12:19:45.254Z,12.18
2017-02-03T12:21:01.275Z,12.08
2017-02-03T12:22:15.733Z,12.08
2017-02-03T12:23:30.243Z,12.12
2017-02-03T12:24:45.561Z,12.15
2017-02-03T12:26:00.097Z,12.25
2017-02-03T12:27:14.706Z,12.21
2017-02-03T12:28:28.736Z,12.05
2017-02-03T12:29:44.591Z,12.02
2017-02-03T12:30:58.744Z,12.14
2017-02-03T12:32:13.549Z,12.21
2017-02-03T12:33:28.391Z,12.28
2017-02-03T12:34:42.460Z,12.2
2017-02-03T12:35:57.063Z,12.17
2017-02-03T12:37:11.546Z,12.2
2017-02-03T12:38:26.560Z,12.18
2017-02-03T12:39:41.481Z,12.17
2017-02-03T12:40:59.240Z,11.97
2017-02-03T12:42:14.390Z,12
2017-02-03T12:43:28.852Z,12.07
2017-02-03T12:44:43.437Z,12.12
2017-02-03T12:45:58.894Z,12.28
2017-02-03T12:47:13.291Z,12.29
2017-02-03T12:48:28.720Z,12.35
2017-02-03T12:49:44.076Z,12.44
2017-02-03T12:50:58.542Z,12.58
2017-02-03T12:52:12.837Z,12.58
2017-02-03T12:53:27.443Z,12.44
2017-02-03T12:54:41.975Z,12.44
2017-02-03T12:55:58.377Z,12.23
2017-02-03T12:57:12.945Z,12.37
2017-02-03T12:58:27.260Z,12.35
2017-02-03T13:00:31.852Z,12.55
2017-02-03T13:01:46.038Z,12.69
2017-02-03T13:03:01.463Z,12.57
2017-02-03T13:04:16.493Z,12.47
2017-02-03T13:05:30.577Z,12.4
2017-02-03T13:06:44.875Z,12.39
2017-02-03T13:07:59.167Z,12.37
2017-02-03T13:09:13.283Z,12.3
2017-02-03T13:57:34.635Z,12.12
2017-02-03T13:58:50.499Z,12.02
2017-02-03T14:00:04.838Z,11.96
2017-02-03T14:01:19.763Z,11.89
2017-02-03T14:02:34.530Z,11.74
2017-02-03T14:03:50.276Z,11.74
2017-02-03T14:05:05.028Z,11.76
2017-02-03T14:06:19.980Z,11.65
2017-02-03T14:07:52.584Z,11.56
2017-02-03T14:09:07.285Z,11.51
2017-02-03T14:10:21.391Z,11.55
2017-02-03T14:11:35.547Z,11.44
2017-02-03T14:12:49.802Z,11.48
2017-02-03T14:14:04.347Z,11.43
2017-02-03T14:15:18.897Z,11.45
2017-02-03T14:16:33.025Z,11.3
2017-02-03T14:17:47.882Z,11.23
2017-02-03T14:19:02.026Z,11.25
2017-02-03T14:20:16.325Z,11.26
2017-02-03T14:21:30.903Z,11.25
2017-02-03T14:22:47.421Z,11.23
2017-02-03T14:24:01.459Z,11.3
2017-02-03T14:25:18.109Z,11.45
2017-02-03T14:26:33.147Z,11.43
2017-02-03T14:27:48.661Z,11.41
2017-02-03T14:29:02.838Z,11.27
2017-02-03T14:30:17.783Z,11.4
2017-02-03T14:31:33.044Z,11.43
2017-02-03T14:32:47.801Z,11.45
2017-02-03T14:34:02.467Z,11.41
2017-02-03T14:35:17.313Z,11.34
2017-02-03T14:36:32.186Z,11.31
2017-02-03T14:37:48.199Z,11.35
2017-02-03T14:39:02.512Z,11.48
2017-02-03T14:40:19.120Z,11.44
2017-02-03T14:41:34.112Z,11.41
2017-02-03T14:42:49.021Z,11.48
2017-02-03T14:44:03.630Z,11.4
2017-02-03T14:45:18.528Z,11.49
2017-02-03T14:46:34.200Z,11.4
2017-02-03T14:47:48.795Z,11.51
2017-02-03T14:49:03.798Z,11.52
2017-02-03T14:50:18.452Z,11.6
2017-02-03T14:51:34.091Z,11.53
2017-02-03T14:52:48.630Z,11.62
2017-02-03T14:54:02.824Z,11.56
2017-02-03T14:55:18.160Z,11.59
2017-02-03T14:56:33.886Z,11.62
2017-02-03T14:57:48.636Z,11.68
2017-02-03T14:59:04.936Z,11.78
2017-02-03T15:00:18.896Z,11.68
2017-02-03T15:01:34.567Z,11.6
2017-02-03T15:02:48.991Z,11.56
2017-02-03T15:04:04.920Z,11.65
2017-02-03T15:05:20.711Z,11.65
2017-02-03T15:06:35.374Z,11.74
2017-02-03T15:07:52.022Z,11.73
2017-02-03T15:09:06.009Z,11.53
2017-02-03T15:10:20.606Z,11.59
2017-02-03T15:11:36.115Z,11.6
2017-02-03T15:12:50.943Z,11.51
2017-02-03T15:14:05.005Z,11.53
2017-02-03T15:15:19.137Z,11.48
2017-02-03T15:16:34.438Z,11.55
2017-02-03T15:17:49.537Z,11.44
2017-02-03T15:19:05.482Z,11.38
2017-02-03T15:20:20.664Z,11.45
2017-02-03T15:21:34.716Z,11.38
2017-02-03T15:22:49.255Z,11.34
2017-02-03T15:24:04.433Z,11.33
2017-02-03T15:25:19.863Z,11.41
2017-02-03T15:26:35.139Z,11.3
2017-02-03T15:27:50.624Z,11.31
2017-02-03T15:29:04.670Z,11.34
2017-02-03T15:30:24.895Z,11.34
2017-02-03T15:31:39.173Z,11.34
2017-02-03T15:32:53.700Z,11.35
2017-02-03T15:34:08.397Z,11.34
2017-02-03T15:35:24.827Z,11.44
2017-02-03T15:36:40.704Z,11.31
2017-02-03T15:37:55.141Z,11.26
2017-02-03T15:39:10.268Z,11.19
2017-02-03T15:40:24.326Z,11.25
2017-02-03T15:41:39.385Z,11.2
2017-02-03T15:42:53.817Z,11.3
2017-02-03T15:44:08.924Z,11.18
2017-02-03T15:45:23.386Z,11.08
2017-02-03T15:46:38.343Z,11.13
2017-02-03T15:47:53.650Z,11.02
2017-02-03T15:49:07.954Z,11.13
2017-02-03T15:50:22.492Z,11.08
2017-02-03T15:51:37.402Z,11.13
2017-02-03T15:52:52.791Z,11.15
2017-02-03T15:54:08.150Z,11.18
2017-02-03T15:55:23.756Z,11.25
2017-02-03T15:56:38.790Z,11.26
2017-02-03T15:57:55.257Z,11.3
2017-02-03T15:59:09.260Z,11.27
2017-02-03T16:00:24.154Z,11.13
2017-02-03T16:01:38.685Z,11.13
2017-02-03T16:02:53.297Z,11.18
2017-02-03T16:04:09.479Z,11.2
2017-02-03T16:05:24.046Z,11.26
2017-02-03T16:06:41.196Z,11.22
2017-02-03T16:07:56.999Z,11.22
2017-02-03T16:09:11.507Z,11.25
2017-02-03T16:10:26.636Z,11.19
2017-02-03T16:11:41.769Z,11.19
2017-02-03T16:12:56.666Z,11.25
2017-02-03T16:14:12.836Z,11.26
2017-02-03T16:15:27.752Z,11.3
2017-02-03T16:16:42.145Z,11.34
2017-02-03T16:17:56.165Z,11.27
2017-02-03T16:19:11.957Z,11.23
2017-02-03T16:20:26.392Z,11.22
2017-02-03T16:21:41.845Z,11.26
2017-02-03T16:22:56.975Z,11.27
2017-02-03T16:24:30.832Z,11.18
2017-02-03T16:25:45.935Z,11.13
2017-02-03T16:27:01.134Z,11.12
2017-02-03T16:28:15.744Z,11.02
2017-02-03T16:29:30.189Z,11.02
2017-02-03T16:30:44.891Z,10.97
2017-02-03T16:31:59.684Z,10.95
2017-02-03T16:33:14.781Z,10.98
2017-02-03T16:34:30.360Z,10.86
2017-02-03T16:35:44.337Z,10.75
2017-02-03T16:36:59.000Z,10.76
2017-02-03T16:38:15.460Z,10.76
2017-02-03T16:39:30.258Z,10.79
2017-02-03T16:40:44.332Z,10.72
2017-02-03T16:41:58.866Z,10.72
2017-02-03T16:43:12.996Z,10.71
2017-02-03T16:44:29.256Z,10.61
2017-02-03T16:45:44.557Z,10.58
2017-02-03T16:47:00.391Z,10.61
2017-02-03T16:48:15.220Z,10.43
2017-02-03T16:49:30.445Z,10.43
2017-02-03T16:50:45.191Z,10.34
2017-02-03T16:52:00.473Z,10.23
2017-02-03T16:53:15.376Z,10.27
2017-02-03T16:54:30.956Z,10.27
2017-02-03T16:55:46.693Z,10.24
2017-02-03T16:57:02.046Z,10.18
2017-02-03T16:58:16.474Z,10.18
2017-02-03T16:59:31.272Z,10.18
2017-02-03T17:00:46.687Z,10.07
2017-02-03T17:02:00.915Z,10
2017-02-03T17:03:17.057Z,10.05
2017-02-03T17:04:32.044Z,10.05
2017-02-03T17:05:47.396Z,10
2017-02-03T17:07:01.828Z,10.05
2017-02-03T17:08:31.102Z,10
2017-02-03T17:09:45.950Z,10.02
2017-02-03T17:11:01.556Z,10.05
2017-02-03T17:12:17.378Z,9.91
2017-02-03T17:13:32.763Z,9.85
2017-02-03T17:14:48.334Z,9.77
2017-02-03T17:16:06.512Z,9.69
2017-02-03T17:17:22.042Z,9.64
2017-02-03T17:18:36.493Z,9.67
2017-02-03T17:19:51.701Z,9.64
2017-02-03T17:21:05.745Z,9.66
2017-02-03T17:22:20.592Z,9.63
2017-02-03T17:23:35.588Z,9.58
2017-02-03T17:24:50.702Z,9.54
2017-02-03T17:26:05.446Z,9.44
2017-02-03T17:27:20.072Z,9.33
2017-02-03T17:28:34.464Z,9.31
2017-02-03T17:29:48.661Z,9.36
2017-02-03T17:31:02.642Z,9.36
2017-02-03T17:32:16.900Z,9.27
2017-02-03T17:33:31.001Z,9.27
2017-02-03T17:35:19.507Z,9.13
2017-02-03T17:36:49.784Z,9.08
2017-02-03T17:38:06.852Z,9.02
2017-02-03T17:39:23.004Z,8.99
2017-02-03T17:40:38.291Z,9.03
2017-02-03T17:41:53.011Z,9.03
2017-02-03T17:43:08.293Z,8.99
2017-02-03T17:44:23.005Z,8.86
2017-02-03T17:45:38.225Z,8.89
2017-02-03T17:46:52.876Z,8.79
2017-02-03T17:48:07.199Z,8.77
2017-02-03T17:49:22.197Z,8.66
2017-02-03T17:50:36.196Z,8.72
2017-02-03T17:51:51.150Z,8.77
2017-02-03T17:53:08.243Z,8.68
2017-02-03T17:54:22.940Z,8.63
2017-02-03T17:55:37.790Z,8.66
2017-02-03T17:56:52.521Z,8.6
2017-02-03T17:58:09.795Z,8.61
2017-02-03T17:59:24.882Z,8.56
2017-02-03T18:00:41.083Z,8.57
2017-02-03T18:01:56.672Z,8.52
2017-02-03T18:03:12.252Z,8.42
2017-02-03T18:04:26.430Z,8.35
2017-02-03T18:05:40.437Z,8.42
2017-02-03T18:06:54.976Z,8.46
2017-02-03T18:08:09.824Z,8.44
2017-02-03T18:09:24.889Z,8.42
2017-02-03T18:10:40.371Z,8.42
2017-02-03T18:11:55.716Z,8.39
2017-02-03T18:13:17.025Z,8.38
2017-02-03T18:14:33.973Z,8.34
2017-02-03T18:15:48.450Z,8.35
2017-02-03T18:17:03.695Z,8.39
2017-02-03T18:18:19.364Z,8.31
2017-02-03T18:19:33.557Z,8.26
2017-02-03T18:20:49.041Z,8.16
2017-02-03T18:22:09.481Z,8.06
2017-02-03T18:23:25.947Z,7.99
2017-02-03T18:24:40.923Z,7.91
2017-02-03T18:25:56.293Z,7.99
2017-02-03T18:27:12.640Z,8.05
2017-02-03T18:28:28.711Z,7.96
2017-02-03T18:29:43.969Z,8.03
2017-02-03T18:30:58.970Z,8.02
2017-02-03T18:32:14.103Z,8.09
2017-02-03T18:33:29.937Z,8.02
2017-02-03T18:34:46.855Z,8.05
2017-02-03T18:36:01.690Z,8.08
2017-02-03T18:37:17.639Z,8.01
2017-02-03T18:38:32.653Z,8.01
2017-02-03T18:39:50.268Z,7.78
2017-02-03T18:41:04.560Z,7.78
2017-02-03T18:42:18.895Z,7.8
2017-02-03T18:43:33.494Z,7.78
2017-02-03T18:44:48.699Z,7.84
2017-02-03T18:46:03.701Z,7.78
2017-02-03T18:47:17.879Z,7.78
2017-02-03T18:48:32.771Z,7.75
2017-02-03T18:49:46.881Z,7.87
2017-02-03T18:51:01.760Z,7.85
2017-02-03T18:52:16.104Z,7.77
2017-02-03T18:53:30.842Z,7.84
2017-02-03T18:54:46.054Z,7.84
2017-02-03T18:56:01.147Z,7.8
2017-02-03T18:57:16.398Z,7.77
2017-02-03T18:58:31.485Z,7.74
2017-02-03T18:59:47.205Z,7.61
2017-02-03T19:01:02.027Z,7.59
2017-02-03T19:02:17.132Z,7.67
2017-02-03T19:03:32.962Z,7.67
2017-02-03T19:04:47.740Z,7.58
2017-02-03T19:06:02.352Z,7.66
2017-02-03T19:07:16.883Z,7.56
2017-02-03T19:08:31.497Z,7.69
2017-02-03T19:09:46.852Z,7.61
2017-02-03T19:11:01.910Z,7.66
2017-02-03T19:12:16.834Z,7.67
2017-02-03T19:13:31.298Z,7.77
2017-02-03T19:14:45.761Z,7.66
2017-02-03T19:16:00.863Z,7.74
2017-02-03T19:17:15.587Z,7.77
2017-02-03T19:18:31.448Z,7.84
2017-02-03T19:19:46.478Z,7.8
2017-02-03T19:21:01.072Z,7.77
2017-02-03T19:22:15.098Z,7.67
2017-02-03T19:23:29.550Z,7.59
2017-02-03T19:24:46.053Z,7.62
2017-02-03T19:26:01.608Z,7.64
2017-02-03T19:27:16.859Z,7.58
2017-02-03T19:28:31.432Z,7.51
2017-02-03T19:29:46.885Z,7.5
2017-02-03T19:31:02.108Z,7.47
2017-02-03T19:32:16.595Z,7.46
2017-02-03T19:33:31.589Z,7.41
2017-02-03T19:34:46.555Z,7.47
2017-02-03T19:36:01.531Z,7.4
2017-02-03T19:37:15.540Z,7.39
2017-02-03T19:38:29.773Z,7.39
2017-02-03T19:39:43.925Z,7.29
2017-02-03T19:40:58.570Z,7.28
2017-02-03T19:42:12.843Z,7.26
2017-02-03T19:43:28.531Z,7.31
2017-02-03T19:44:43.160Z,7.31
2017-02-03T19:45:58.505Z,7.29
2017-02-03T19:47:14.798Z,7.28
2017-02-03T19:48:29.752Z,7.1
2017-02-03T19:49:44.274Z,7.11
2017-02-03T19:50:58.496Z,7.07
2017-02-03T19:52:15.675Z,7.04
2017-02-03T19:53:31.792Z,7.05
2017-02-03T19:54:46.894Z,6.95
2017-02-03T19:56:00.864Z,6.96
2017-02-03T19:57:15.219Z,7.03
2017-02-03T19:58:29.406Z,7.01
2017-02-03T19:59:45.597Z,7.03
2017-02-03T20:00:59.972Z,7.04
2017-02-03T20:02:14.625Z,7.08
2017-02-03T20:03:29.692Z,7
2017-02-03T20:04:45.111Z,7.03
2017-02-03T20:05:59.592Z,7.04
2017-02-03T20:07:14.713Z,7.03
2017-02-03T20:08:29.852Z,7.05
2017-02-03T20:09:44.343Z,7.14
2017-02-03T20:11:01.324Z,7.21
2017-02-03T20:12:16.687Z,7.26
2017-02-03T20:13:43.453Z,7.4
2017-02-03T20:15:06.995Z,7.29
2017-02-03T20:16:21.234Z,7.23
2017-02-03T20:17:36.696Z,7.1
2017-02-03T20:18:50.913Z,7.1
2017-02-03T20:20:05.795Z,7
2017-02-03T20:21:25.919Z,7.08
2017-02-03T20:22:40.392Z,7.15
2017-02-03T20:23:55.062Z,7.14
2017-02-03T20:25:09.034Z,7.11
2017-02-03T20:26:24.858Z,7.21
2017-02-03T20:27:44.269Z,7.29
2017-02-03T20:29:16.149Z,7.4
2017-02-03T20:30:32.647Z,7.39
2017-02-03T20:31:46.748Z,7.43
2017-02-03T20:33:02.784Z,7.5
2017-02-03T20:34:18.735Z,7.48
2017-02-03T20:35:32.752Z,7.5
2017-02-03T20:36:48.379Z,7.46
2017-02-03T20:38:03.537Z,7.5
2017-02-03T20:39:19.010Z,7.36
2017-02-03T20:40:33.192Z,7.48
2017-02-03T20:41:48.664Z,7.44
2017-02-03T20:43:12.816Z,7.46
2017-02-03T20:44:26.986Z,7.46
2017-02-03T20:45:41.775Z,7.64
2017-02-03T20:46:56.374Z,7.75
2017-02-03T20:48:10.377Z,7.8
2017-02-03T20:49:25.276Z,7.77
2017-02-03T20:50:39.586Z,7.81
2017-02-03T20:51:55.085Z,7.77
2017-02-03T20:53:10.379Z,7.87
2017-02-03T20:54:24.444Z,7.8
2017-02-03T20:55:39.676Z,7.66
2017-02-03T20:56:53.965Z,7.75
2017-02-03T20:58:09.126Z,7.69
2017-02-03T20:59:24.119Z,7.64
2017-02-03T21:00:38.364Z,7.62
2017-02-03T21:01:53.065Z,7.59
2017-02-03T21:03:07.987Z,7.47
2017-02-03T21:04:23.899Z,7.53
2017-02-03T21:05:39.547Z,7.48
2017-02-03T21:06:55.108Z,7.51
2017-02-03T21:08:09.361Z,7.62
2017-02-03T21:09:23.893Z,7.62
2017-02-03T21:10:41.297Z,7.58
2017-02-03T21:11:55.310Z,7.55
2017-02-03T21:13:09.931Z,7.59
2017-02-03T21:14:24.491Z,7.66
2017-02-03T21:15:38.940Z,7.59
2017-02-03T21:16:52.964Z,7.7
2017-02-03T21:18:07.526Z,7.67
2017-02-03T21:19:22.546Z,7.59
2017-02-03T21:20:37.003Z,7.64
2017-02-03T21:21:53.148Z,7.61
2017-02-03T21:23:07.286Z,7.4
2017-02-03T21:24:22.627Z,7.5
2017-02-03T21:25:38.115Z,7.41
2017-02-03T21:26:52.129Z,7.48
2017-02-03T21:28:06.727Z,7.4
2017-02-03T21:29:21.394Z,7.41
2017-02-03T21:30:35.585Z,7.39
2017-02-03T21:31:50.465Z,7.28
2017-02-03T21:33:05.237Z,7.28
2017-02-03T21:34:19.989Z,7.31
2017-02-03T21:35:34.179Z,7.32
2017-02-03T21:36:48.240Z,7.25
2017-02-03T21:38:02.467Z,7.28
2017-02-03T21:39:17.423Z,7.25
2017-02-03T21:40:32.342Z,7.25
2017-02-03T21:41:47.095Z,7.14
2017-02-03T21:43:02.236Z,7.15
2017-02-03T21:44:17.156Z,7.23
2017-02-03T21:45:32.314Z,7.29
2017-02-03T21:46:47.103Z,7.29
2017-02-03T21:48:01.240Z,7.39
2017-02-03T21:49:15.737Z,7.29
2017-02-03T21:50:30.884Z,7.43
2017-02-03T21:51:45.890Z,7.43
2017-02-03T21:53:00.568Z,7.46
2017-02-03T21:54:14.552Z,7.44
2017-02-03T21:55:28.832Z,7.48
2017-02-03T21:56:42.867Z,7.4
2017-02-03T21:57:57.549Z,7.46
2017-02-03T21:59:11.864Z,7.51
2017-02-03T22:00:26.615Z,7.4
2017-02-03T22:01:40.579Z,7.44
2017-02-03T22:02:54.709Z,7.53
2017-02-03T22:04:08.705Z,7.4
2017-02-03T22:05:23.917Z,7.4
2017-02-03T22:06:38.836Z,7.44
2017-02-03T22:07:53.465Z,7.5
2017-02-03T22:09:07.888Z,7.44
2017-02-03T22:10:26.082Z,7.5
2017-02-03T22:11:41.103Z,7.44
2017-02-03T22:12:55.503Z,7.4
2017-02-03T22:14:09.695Z,7.43
2017-02-03T22:15:24.303Z,7.36
2017-02-03T22:16:38.503Z,7.39
2017-02-03T22:18:03.493Z,7.29
2017-02-03T22:19:18.507Z,7.29
2017-02-03T22:20:33.207Z,7.31
2017-02-03T22:21:47.490Z,7.41
2017-02-03T22:23:01.921Z,7.37
2017-02-03T22:24:16.596Z,7.28
2017-02-03T22:25:31.835Z,7.26
2017-02-03T22:26:55.989Z,7.28
2017-02-03T22:28:12.966Z,7.29
2017-02-03T22:29:27.466Z,7.31
2017-02-03T22:30:51.736Z,7.07
2017-02-03T22:32:23.886Z,7.22
2017-02-03T22:33:38.012Z,7.08
2017-02-03T22:34:52.427Z,7.29
2017-02-03T22:36:06.721Z,7.4
2017-02-03T22:37:21.617Z,7.4
2017-02-03T22:38:36.227Z,7.41
2017-02-03T22:39:50.571Z,7.47
2017-02-03T22:41:05.765Z,7.39
2017-02-03T22:42:20.811Z,7.44
2017-02-03T22:43:35.248Z,7.46
2017-02-03T22:44:49.813Z,7.43
2017-02-03T22:46:04.568Z,7.39
2017-02-03T22:47:19.933Z,7.46
2017-02-03T22:48:34.375Z,7.4
2017-02-03T22:50:19.947Z,7.48
2017-02-03T22:51:34.123Z,7.51
2017-02-03T22:52:48.544Z,7.58
2017-02-03T22:54:03.153Z,7.62
2017-02-03T22:55:17.562Z,7.51
2017-02-03T22:56:31.725Z,7.5
2017-02-03T22:57:46.423Z,7.46
2017-02-03T22:59:00.562Z,7.48
2017-02-03T23:00:15.065Z,7.53
2017-02-03T23:01:29.253Z,7.58
2017-02-03T23:02:43.683Z,7.56
2017-02-03T23:03:58.092Z,7.62
2017-02-03T23:05:12.541Z,7.48
2017-02-03T23:06:27.558Z,7.59
2017-02-03T23:07:41.579Z,7.59
2017-02-03T23:08:55.724Z,7.61
2017-02-03T23:10:10.470Z,7.64
2017-02-03T23:11:24.620Z,7.62
2017-02-03T23:12:38.622Z,7.58
2017-02-03T23:13:52.742Z,7.53
2017-02-03T23:15:07.156Z,7.53
2017-02-03T23:16:22.038Z,7.55
2017-02-03T23:17:36.068Z,7.61
2017-02-03T23:18:50.206Z,7.62
2017-02-03T23:20:04.209Z,7.59
2017-02-03T23:21:18.384Z,7.7
2017-02-03T23:22:33.172Z,7.74
2017-02-03T23:23:47.273Z,7.7
2017-02-03T23:25:01.211Z,7.62
2017-02-03T23:26:16.259Z,7.69
2017-02-03T23:27:30.253Z,7.69
2017-02-03T23:28:44.640Z,7.67
2017-02-03T23:29:58.603Z,7.64
2017-02-03T23:31:13.228Z,7.75
2017-02-03T23:32:28.105Z,7.81
2017-02-03T23:33:42.291Z,7.84
2017-02-03T23:34:56.606Z,7.8
2017-02-03T23:36:11.187Z,7.84
2017-02-03T23:37:25.617Z,7.75
2017-02-03T23:38:40.249Z,7.78
2017-02-03T23:39:54.262Z,7.88
2017-02-03T23:41:09.613Z,7.88
2017-02-03T23:42:23.561Z,7.93
2017-02-03T23:43:38.202Z,7.98
2017-02-03T23:44:52.739Z,8.06
2017-02-03T23:46:10.432Z,8.02
2017-02-03T23:47:26.356Z,8.06
2017-02-03T23:48:41.036Z,8.16
2017-02-03T23:49:56.525Z,8.14
2017-02-03T23:51:10.772Z,8.13
2017-02-03T23:52:35.050Z,8.16
2017-02-03T23:53:51.158Z,8.24
2017-02-03T23:55:05.447Z,8.23
2017-02-03T23:56:19.751Z,8.23
2017-02-03T23:57:34.598Z,8.35
2017-02-03T23:58:50.592Z,8.28
